Time;durP1;ratioP1;P1;durP2;ratioP2;P2;SDS_P1;SDS_P2;PMS_P1;PMS_P2;Temp;Humidity;BMP_temperature;BMP_pressure;BME280_temperature;BME280_humidity;BME280_pressure;Samples;Min_cycle;Max_cycle;Signal;HPM_P1;HPM_P2
2023/08/30 00:00:18;;;;;;;1.88;1.73;;;13.60;99.90;;;;;;5046851;28;20262;-91
2023/08/30 00:02:45;;;;;;;3.00;1.98;;;13.40;1.00;;;;;;5046329;28;20182;-89
2023/08/30 00:05:11;;;;;;;1.85;1.67;;;13.00;99.90;;;;;;5045718;28;20185;-89
2023/08/30 00:07:37;;;;;;;2.10;1.58;;;13.40;1.00;;;;;;5050119;28;20206;-89
2023/08/30 00:10:03;;;;;;;1.85;1.52;;;13.10;99.90;;;;;;5050440;28;21179;-90
2023/08/30 00:12:29;;;;;;;1.70;1.60;;;13.10;99.90;;;;;;5051617;28;20304;-90
2023/08/30 00:14:55;;;;;;;2.08;1.60;;;13.50;99.90;;;;;;5050105;28;20648;-91
2023/08/30 00:17:21;;;;;;;2.80;1.52;;;14.10;99.90;;;;;;5050365;28;20181;-90
2023/08/30 00:19:48;;;;;;;2.90;1.80;;;13.30;99.90;;;;;;5050047;28;20206;-90
2023/08/30 00:22:14;;;;;;;2.10;1.90;;;13.90;99.90;;;;;;5050305;28;20231;-90
2023/08/30 00:24:39;;;;;;;2.72;1.58;;;13.10;99.90;;;;;;5050056;28;20194;-90
2023/08/30 00:27:05;;;;;;;2.58;1.60;;;13.90;99.90;;;;;;5050072;28;20202;-89
2023/08/30 00:29:30;;;;;;;1.92;1.80;;;13.90;1.00;;;;;;5050174;28;20740;-90
2023/08/30 00:31:56;;;;;;;2.30;2.10;;;13.20;1.00;;;;;;5051115;28;20193;-90
2023/08/30 00:34:22;;;;;;;1.67;1.58;;;13.50;1.00;;;;;;5051612;28;20178;-89
2023/08/30 00:36:47;;;;;;;1.83;1.60;;;13.90;1.00;;;;;;5050201;28;20182;-90
2023/08/30 00:39:13;;;;;;;2.88;1.90;;;12.70;99.90;;;;;;5050435;28;20194;-90
2023/08/30 00:41:39;;;;;;;3.80;2.08;;;13.10;1.00;;;;;;5050169;28;20194;-90
2023/08/30 00:44:05;;;;;;;1.70;1.60;;;12.50;99.90;;;;;;5050770;28;20190;-90
2023/08/30 00:46:32;;;;;;;2.00;1.80;;;12.60;1.00;;;;;;5049907;28;20209;-90
2023/08/30 00:49:02;;;;;;;2.20;1.77;;;13.50;1.00;;;;;;5049800;28;20297;-89
2023/08/30 00:51:28;;;;;;;3.83;1.92;;;12.30;1.00;;;;;;5050202;28;20197;-90
2023/08/30 00:53:58;;;;;;;2.13;1.65;;;13.30;1.00;;;;;;5050360;28;20182;-90
2023/08/30 00:56:23;;;;;;;3.42;2.20;;;12.20;1.00;;;;;;5049432;28;20185;-90
2023/08/30 00:58:49;;;;;;;2.25;2.05;;;13.30;99.90;;;;;;5049934;28;20213;-90
2023/08/30 01:01:16;;;;;;;2.00;1.90;;;13.30;99.90;;;;;;5049989;28;20320;-89
2023/08/30 01:03:42;;;;;;;1.70;1.60;;;13.40;99.90;;;;;;5049980;28;20674;-89
2023/08/30 01:06:07;;;;;;;2.10;1.90;;;12.80;1.00;;;;;;5050444;28;20206;-91
2023/08/30 01:08:35;;;;;;;2.47;2.03;;;13.10;99.90;;;;;;5067011;28;20316;-91
2023/08/30 01:11:24;;;;;;;3.38;1.80;;;13.90;73.70;;;;;;5051828;28;20170;-90
2023/08/30 01:14:13;;;;;;;2.95;1.83;;;12.80;1.00;;;;;;5049384;28;20179;-89
2023/08/30 01:16:39;;;;;;;2.03;1.92;;;12.80;99.90;;;;;;5049233;28;20186;-91
2023/08/30 01:19:34;;;;;;;3.80;1.95;;;13.10;1.00;;;;;;5050150;28;20209;-91
2023/08/30 01:22:14;;;;;;;3.05;1.90;;;12.40;1.00;;;;;;5050118;28;20186;-90
2023/08/30 01:24:47;;;;;;;1.85;1.75;;;12.80;99.90;;;;;;5066674;28;20188;-91
2023/08/30 01:27:15;;;;;;;2.60;2.40;;;13.00;1.00;;;;;;5050260;28;20198;-91
2023/08/30 01:29:44;;;;;;;3.67;2.65;;;13.10;1.00;;;;;;5050014;28;20559;-90
2023/08/30 01:32:10;;;;;;;4.32;2.45;;;13.40;99.90;;;;;;5049755;28;20217;-90
2023/08/30 01:34:38;;;;;;;4.93;2.70;;;13.60;99.90;;;;;;5049688;28;20210;-90
2023/08/30 01:37:07;;;;;;;3.50;2.55;;;13.30;1.00;;;;;;5066058;28;20232;-89
2023/08/30 01:39:34;;;;;;;3.08;2.60;;;14.00;99.90;;;;;;5049989;28;20198;-90
2023/08/30 01:42:01;;;;;;;2.55;2.35;;;12.50;1.00;;;;;;5050117;28;20235;-91
2023/08/30 01:44:28;;;;;;;3.08;2.75;;;12.80;99.90;;;;;;5049834;28;20186;-91
2023/08/30 01:46:55;;;;;;;2.38;2.17;;;12.70;1.00;;;;;;5050288;28;20273;-90
2023/08/30 01:49:22;;;;;;;5.38;2.80;;;11.80;99.90;;;;;;5051131;28;20229;-90
2023/08/30 01:51:49;;;;;;;2.90;2.70;;;12.50;1.00;;;;;;5049808;28;20273;-91
2023/08/30 01:54:18;;;;;;;2.85;2.38;;;12.80;99.90;;;;;;5050070;28;20178;-91
2023/08/30 01:56:47;;;;;;;3.05;2.50;;;12.90;99.90;;;;;;5051120;28;20245;-90
2023/08/30 01:59:13;;;;;;;3.55;2.38;;;11.70;99.90;;;;;;5049894;28;20237;-90
2023/08/30 02:01:39;;;;;;;3.15;2.95;;;11.90;1.00;;;;;;5068988;28;20221;-89
2023/08/30 02:04:05;;;;;;;2.85;2.63;;;12.90;99.90;;;;;;5057771;28;20178;-92
2023/08/30 02:06:33;;;;;;;3.83;2.70;;;11.90;1.00;;;;;;5056113;28;20213;-89
2023/08/30 02:09:04;;;;;;;2.60;2.40;;;12.20;1.00;;;;;;5058483;28;20680;-90
2023/08/30 02:11:34;;;;;;;2.67;2.40;;;12.00;99.90;;;;;;5055573;28;20178;-89
2023/08/30 02:14:06;;;;;;;2.85;2.65;;;12.70;99.90;;;;;;5057093;28;20178;-89
2023/08/30 02:16:32;;;;;;;3.90;2.78;;;13.10;1.00;;;;;;5058433;28;20197;-89
2023/08/30 02:18:58;;;;;;;3.30;2.88;;;12.20;1.00;;;;;;5057575;28;20201;-89
2023/08/30 02:21:24;;;;;;;3.10;2.90;;;13.90;1.00;;;;;;5059657;28;20675;-89
2023/08/30 02:23:53;;;;;;;3.00;2.70;;;12.30;1.00;;;;;;5048695;28;20185;-88
2023/08/30 02:26:20;;;;;;;3.97;2.90;;;11.70;1.00;;;;;;5045876;28;20210;-89
2023/08/30 02:28:45;;;;;;;3.63;2.75;;;13.40;1.00;;;;;;5045344;28;20206;-88
2023/08/30 02:31:11;;;;;;;3.05;2.85;;;12.30;1.00;;;;;;5046249;28;20528;-88
2023/08/30 02:33:39;;;;;;;4.07;2.90;;;12.10;1.00;;;;;;5047221;28;20232;-87
2023/08/30 02:36:05;;;;;;;2.92;2.72;;;13.00;30.30;;;;;;5045852;28;20889;-89
2023/08/30 02:38:30;;;;;;;4.20;3.28;;;12.20;99.90;;;;;;5052141;28;20245;-89
2023/08/30 02:40:56;;;;;;;3.72;3.22;;;12.50;99.90;;;;;;5055109;28;20277;-88
2023/08/30 02:43:22;;;;;;;3.53;3.22;;;13.20;59.20;;;;;;5056691;28;20242;-89
2023/08/30 02:45:48;;;;;;;3.90;3.60;;;13.00;99.90;;;;;;5055176;28;20186;-89
2023/08/30 02:48:14;;;;;;;3.45;3.22;;;13.10;37.90;;;;;;5056933;28;20198;-89
2023/08/30 02:50:40;;;;;;;4.05;3.65;;;12.60;99.90;;;;;;5056083;28;20193;-89
2023/08/30 02:53:08;;;;;;;3.70;3.40;;;12.50;99.90;;;;;;5055234;28;20177;-89
2023/08/30 02:55:34;;;;;;;4.00;3.65;;;13.00;1.00;;;;;;5054287;28;20174;-89
2023/08/30 02:57:59;;;;;;;3.67;3.38;;;12.70;1.00;;;;;;5054305;28;20185;-89
2023/08/30 03:00:25;;;;;;;5.10;3.80;;;12.70;1.00;;;;;;5054049;28;20182;-89
2023/08/30 03:02:51;;;;;;;5.20;4.35;;;12.80;9.30;;;;;;5054153;28;20273;-89
2023/08/30 03:05:18;;;;;;;4.70;4.10;;;12.80;99.90;;;;;;5054327;28;20208;-89
2023/08/30 03:07:43;;;;;;;4.60;4.10;;;13.20;99.90;;;;;;5054017;28;20677;-89
2023/08/30 03:10:09;;;;;;;5.00;4.60;;;12.80;1.00;;;;;;5054652;28;20198;-89
2023/08/30 03:12:35;;;;;;;5.82;4.32;;;12.00;1.00;;;;;;5054704;28;20220;-89
2023/08/30 03:15:01;;;;;;;6.38;4.50;;;12.00;1.00;;;;;;5055360;28;20171;-89
2023/08/30 03:17:27;;;;;;;4.30;3.90;;;12.00;1.00;;;;;;5054793;28;20205;-89
2023/08/30 03:19:53;;;;;;;5.45;4.43;;;12.70;1.00;;;;;;5054646;28;20205;-89
2023/08/30 03:22:19;;;;;;;6.35;5.00;;;12.80;1.00;;;;;;5054631;28;20644;-89
2023/08/30 03:24:44;;;;;;;6.25;5.22;;;12.50;1.00;;;;;;5055302;28;20190;-89
2023/08/30 03:27:10;;;;;;;4.95;4.30;;;12.20;1.00;;;;;;5054359;28;20202;-89
2023/08/30 03:29:36;;;;;;;5.05;4.57;;;12.80;1.00;;;;;;5054486;28;20584;-89
2023/08/30 03:32:01;;;;;;;5.65;4.80;;;12.80;33.00;;;;;;5057370;28;20185;-90
2023/08/30 03:34:27;;;;;;;4.38;3.97;;;12.40;1.00;;;;;;5055742;28;20174;-90
2023/08/30 03:36:54;;;;;;;4.63;4.22;;;13.00;1.00;;;;;;5054207;28;20173;-89
2023/08/30 03:39:20;;;;;;;5.00;4.53;;;11.70;1.00;;;;;;5054139;28;20280;-89
2023/08/30 03:41:46;;;;;;;4.85;4.45;;;12.20;99.90;;;;;;5053286;28;20640;-89
2023/08/30 03:44:12;;;;;;;5.10;4.60;;;12.50;1.00;;;;;;5053890;28;20189;-91
2023/08/30 03:46:37;;;;;;;5.00;4.60;;;13.50;1.00;;;;;;5053791;28;20202;-91
2023/08/30 03:49:03;;;;;;;4.88;4.47;;;12.80;1.00;;;;;;5052704;28;20254;-91
2023/08/30 03:51:29;;;;;;;5.47;4.88;;;11.80;49.90;;;;;;5054447;28;20190;-89
2023/08/30 03:53:56;;;;;;;5.18;4.68;;;13.10;1.00;;;;;;5056501;28;20178;-89
2023/08/30 03:56:22;;;;;;;5.25;4.25;;;12.30;1.00;;;;;;5055458;28;20741;-89
2023/08/30 03:58:48;;;;;;;4.70;4.30;;;12.60;1.00;;;;;;5053837;28;20240;-89
2023/08/30 04:01:13;;;;;;;5.00;4.60;;;12.30;23.70;;;;;;5053811;28;20675;-89
2023/08/30 04:03:39;;;;;;;4.60;4.20;;;12.20;1.00;;;;;;5054009;28;20182;-89
2023/08/30 04:06:05;;;;;;;4.57;4.15;;;11.80;1.00;;;;;;5054005;28;20704;-89
2023/08/30 04:08:31;;;;;;;4.95;4.53;;;12.50;1.00;;;;;;5053903;28;20701;-88
2023/08/30 04:10:56;;;;;;;4.63;4.22;;;12.00;1.00;;;;;;5055463;28;20181;-88
2023/08/30 04:13:22;;;;;;;4.57;4.13;;;13.10;1.00;;;;;;5054328;28;20551;-89
2023/08/30 04:15:48;;;;;;;4.72;4.13;;;12.70;1.00;;;;;;5054383;28;20727;-89
2023/08/30 04:18:14;;;;;;;5.38;4.88;;;12.70;99.90;;;;;;5053825;28;20194;-89
2023/08/30 04:20:44;;;;;;;5.70;5.10;;;12.70;1.00;;;;;;5054085;28;20178;-89
2023/08/30 04:23:09;;;;;;;4.88;4.47;;;12.80;1.00;;;;;;5054103;28;20174;-89
2023/08/30 04:25:35;;;;;;;4.72;4.32;;;12.10;1.00;;;;;;5053624;28;20193;-89
2023/08/30 04:28:00;;;;;;;4.40;4.10;;;12.40;99.90;;;;;;5054819;28;20208;-89
2023/08/30 04:30:26;;;;;;;5.93;4.20;;;12.30;99.90;;;;;;5053975;28;20182;-89
2023/08/30 04:32:52;;;;;;;5.70;4.00;;;11.60;1.00;;;;;;5054205;28;20186;-89
2023/08/30 04:35:18;;;;;;;4.93;4.50;;;12.00;89.90;;;;;;5053594;28;20619;-89
2023/08/30 04:37:52;;;;;;;5.07;3.92;;;11.70;52.80;;;;;;5053513;28;20174;-92
2023/08/30 04:40:18;;;;;;;6.45;4.70;;;12.50;99.90;;;;;;5052098;28;20278;-92
2023/08/30 04:42:45;;;;;;;5.10;4.70;;;11.80;99.90;;;;;;5052078;28;20624;-93
2023/08/30 04:45:11;;;;;;;4.93;4.40;;;12.80;99.90;;;;;;5052281;28;20308;-92
2023/08/30 04:47:36;;;;;;;5.90;5.03;;;12.00;1.00;;;;;;5052123;28;20206;-93
2023/08/30 04:50:03;;;;;;;5.03;4.53;;;12.40;99.90;;;;;;5052485;28;20221;-92
2023/08/30 04:52:28;;;;;;;5.63;5.00;;;11.70;99.90;;;;;;5054456;28;20174;-93
2023/08/30 04:54:54;;;;;;;6.50;5.85;;;11.10;1.00;;;;;;5055593;28;20621;-92
2023/08/30 04:57:19;;;;;;;7.03;5.72;;;11.80;99.90;;;;;;5055721;28;20194;-92
2023/08/30 04:59:46;;;;;;;6.57;5.80;;;12.30;99.90;;;;;;5055516;28;20214;-92
2023/08/30 05:02:12;;;;;;;6.28;5.22;;;13.40;99.90;;;;;;5055230;28;20217;-93
2023/08/30 05:04:37;;;;;;;6.60;5.18;;;12.40;1.00;;;;;;5054666;28;20244;-93
2023/08/30 05:07:04;;;;;;;7.15;5.43;;;11.90;1.00;;;;;;5054575;28;20198;-93
2023/08/30 05:09:34;;;;;;;5.18;4.57;;;11.70;99.90;;;;;;5054747;28;20210;-92
2023/08/30 05:12:00;;;;;;;6.88;5.20;;;13.70;1.00;;;;;;5054570;28;20277;-92
2023/08/30 05:14:26;;;;;;;8.35;5.88;;;13.40;99.90;;;;;;5054536;28;20336;-92
2023/08/30 05:16:51;;;;;;;6.53;5.25;;;13.80;1.00;;;;;;5054600;28;20640;-92
2023/08/30 05:19:17;;;;;;;5.95;5.30;;;14.20;1.00;;;;;;5054771;28;20769;-93
2023/08/30 05:21:47;;;;;;;6.47;5.45;;;14.10;1.00;;;;;;5054574;28;20210;-93
2023/08/30 05:24:12;;;;;;;6.43;5.13;;;12.90;99.90;;;;;;5054313;28;20174;-91
2023/08/30 05:26:38;;;;;;;6.68;4.93;;;14.00;99.90;;;;;;5056056;28;20501;-91
2023/08/30 05:29:04;;;;;;;7.32;5.60;;;14.30;99.90;;;;;;5057061;28;20197;-93
2023/08/30 05:31:30;;;;;;;6.75;5.30;;;14.60;99.90;;;;;;5057713;28;20178;-93
2023/08/30 05:33:55;;;;;;;8.52;5.82;;;14.20;99.90;;;;;;5057129;28;20216;-92
2023/08/30 05:36:21;;;;;;;5.53;5.03;;;13.00;99.90;;;;;;5057242;28;20196;-93
2023/08/30 05:38:49;;;;;;;6.47;5.35;;;13.60;99.90;;;;;;5057721;28;20198;-92
2023/08/30 05:41:15;;;;;;;5.47;4.38;;;13.60;99.90;;;;;;5057355;28;20269;-92
2023/08/30 05:43:41;;;;;;;5.57;4.80;;;13.40;99.90;;;;;;5057465;28;20626;-93
2023/08/30 05:46:12;;;;;;;5.97;5.22;;;14.20;99.90;;;;;;5056910;28;20194;-93
2023/08/30 05:48:37;;;;;;;5.90;5.35;;;14.70;99.90;;;;;;5057862;28;20201;-92
2023/08/30 05:51:03;;;;;;;6.13;5.10;;;13.50;1.00;;;;;;5057565;28;20194;-93
2023/08/30 05:53:29;;;;;;;6.18;5.03;;;13.70;99.90;;;;;;5057642;28;20178;-93
2023/08/30 05:55:54;;;;;;;10.30;6.03;;;13.80;99.90;;;;;;5058226;28;20178;-92
2023/08/30 05:58:21;;;;;;;5.55;4.90;;;14.00;99.90;;;;;;5058490;28;20213;-92
2023/08/30 06:00:46;;;;;;;6.38;5.03;;;14.30;99.90;;;;;;5055864;28;20174;-93
2023/08/30 06:03:12;;;;;;;5.93;5.32;;;15.00;99.90;;;;;;5053741;28;20180;-92
2023/08/30 06:05:37;;;;;;;7.18;4.68;;;15.40;1.00;;;;;;5056520;28;20207;-93
2023/08/30 06:08:03;;;;;;;5.28;4.72;;;14.30;1.00;;;;;;5058145;28;20741;-92
2023/08/30 06:10:29;;;;;;;4.93;4.50;;;14.30;1.00;;;;;;5059850;28;20535;-92
2023/08/30 06:12:55;;;;;;;6.13;4.05;;;14.40;1.00;;;;;;5057218;28;20206;-93
2023/08/30 06:15:20;;;;;;;9.65;4.40;;;14.60;99.90;;;;;;5057560;28;20261;-93
2023/08/30 06:17:46;;;;;;;5.03;3.85;;;14.40;99.90;;;;;;5058037;28;20186;-92
2023/08/30 07:11:15;;;;;;;2.90;1.90;;;21.00;1.00;;;;;;4953475;29;20201;-93
2023/08/30 07:14:10;;;;;;;1.90;1.42;;;20.40;1.00;;;;;;4940485;28;20228;-94
2023/08/30 07:16:56;;;;;;;2.13;1.92;;;19.50;1.00;;;;;;5042523;28;20265;-93
2023/08/30 07:19:23;;;;;;;2.03;1.83;;;19.40;1.00;;;;;;5031383;28;20727;-94
2023/08/30 07:21:49;;;;;;;3.80;2.25;;;19.20;1.00;;;;;;5032924;28;20198;-94
2023/08/30 07:24:14;;;;;;;2.72;1.92;;;19.20;1.00;;;;;;5052231;28;20277;-93
2023/08/30 07:26:40;;;;;;;3.00;1.95;;;19.20;1.00;;;;;;5052047;28;20650;-92
2023/08/30 07:29:06;;;;;;;2.97;2.20;;;18.80;1.00;;;;;;5049581;28;20284;-90
2023/08/30 07:31:32;;;;;;;3.42;2.15;;;18.60;1.00;;;;;;5046023;28;20239;-90
2023/08/30 07:33:59;;;;;;;2.58;2.13;;;18.70;1.00;;;;;;5045998;28;20237;-88
2023/08/30 07:36:28;;;;;;;2.40;1.80;;;18.60;1.00;;;;;;5048673;28;20624;-89
2023/08/30 07:38:54;;;;;;;3.22;2.22;;;18.70;1.00;;;;;;5044920;28;20263;-90
2023/08/30 07:41:20;;;;;;;3.83;2.30;;;18.70;1.00;;;;;;5047179;28;20711;-89
2023/08/30 07:43:46;;;;;;;3.50;2.25;;;18.70;1.00;;;;;;5045546;28;20547;-90
2023/08/30 07:46:12;;;;;;;2.70;2.00;;;18.70;1.00;;;;;;5047306;28;20247;-89
2023/08/30 07:48:37;;;;;;;2.20;2.10;;;18.70;1.00;;;;;;5045106;28;20684;-90
2023/08/30 07:51:04;;;;;;;2.83;2.00;;;18.60;1.00;;;;;;5044244;28;20182;-90
2023/08/30 07:53:29;;;;;;;2.20;2.00;;;18.60;1.00;;;;;;5044426;28;20492;-91
2023/08/30 07:55:55;;;;;;;3.05;2.00;;;18.70;1.00;;;;;;5043022;28;20624;-89
2023/08/30 07:58:20;;;;;;;2.83;2.10;;;18.60;1.00;;;;;;5041621;28;20201;-87
2023/08/30 08:01:25;;;;;;;2.90;2.25;;;18.70;1.00;;;;;;5041812;28;20190;-87
2023/08/30 08:03:50;;;;;;;3.42;2.10;;;18.70;1.00;;;;;;5042005;28;20186;-87
2023/08/30 08:06:16;;;;;;;3.33;2.70;;;18.90;1.00;;;;;;5043442;28;20576;-87
2023/08/30 08:08:43;;;;;;;1.92;1.83;;;18.80;1.00;;;;;;5044171;28;20271;-87
2023/08/30 08:11:09;;;;;;;1.92;1.83;;;18.80;1.00;;;;;;5042054;28;20197;-87
2023/08/30 08:13:35;;;;;;;4.05;2.47;;;18.90;1.00;;;;;;5041593;28;20734;-87
2023/08/30 08:16:00;;;;;;;3.28;2.08;;;18.90;1.00;;;;;;5043183;28;20436;-87
2023/08/30 08:18:26;;;;;;;2.38;2.17;;;18.80;1.00;;;;;;5043558;28;20247;-87
2023/08/30 08:20:52;;;;;;;2.13;2.03;;;18.90;1.00;;;;;;5042704;28;20240;-88
2023/08/30 08:23:18;;;;;;;2.10;2.00;;;19.10;1.00;;;;;;5043660;28;20552;-87
2023/08/30 08:25:44;;;;;;;1.83;1.70;;;19.00;1.00;;;;;;5043160;28;20592;-88
2023/08/30 08:28:09;;;;;;;2.50;1.92;;;19.10;1.00;;;;;;5046369;28;20268;-87
2023/08/30 08:30:36;;;;;;;2.58;1.70;;;19.30;1.00;;;;;;5047178;28;20281;-87
2023/08/30 08:33:02;;;;;;;2.33;1.83;;;19.40;1.00;;;;;;5046750;28;20239;-88
2023/08/30 08:35:27;;;;;;;2.00;1.40;;;19.50;1.00;;;;;;5047672;28;20257;-87
2023/08/30 08:37:53;;;;;;;2.50;1.80;;;19.60;1.00;;;;;;5047458;28;20190;-87
2023/08/30 08:40:19;;;;;;;2.50;1.77;;;19.60;1.00;;;;;;5049073;28;20218;-88
2023/08/30 08:42:47;;;;;;;2.00;1.60;;;19.60;1.00;;;;;;5044790;28;20218;-90
2023/08/30 08:45:15;;;;;;;1.92;1.70;;;19.40;1.00;;;;;;5045738;28;20190;-89
2023/08/30 08:47:41;;;;;;;1.70;1.42;;;19.20;1.00;;;;;;5045432;28;20287;-88
2023/08/30 08:50:09;;;;;;;1.98;1.60;;;19.10;1.00;;;;;;5044083;28;20289;-86
2023/08/30 08:52:34;;;;;;;1.52;1.38;;;19.20;1.00;;;;;;5062410;28;20456;-88
2023/08/30 08:55:01;;;;;;;1.45;1.20;;;19.20;1.00;;;;;;5046156;28;20174;-86
2023/08/30 08:57:28;;;;;;;4.00;1.60;;;19.20;1.00;;;;;;5046510;28;20182;-87
2023/08/30 08:59:56;;;;;;;2.58;1.50;;;19.20;1.00;;;;;;5047967;28;20932;-87
2023/08/30 09:02:23;;;;;;;3.55;1.67;;;19.20;1.00;;;;;;5047305;28;20186;-88
2023/08/30 09:04:49;;;;;;;1.67;1.58;;;19.30;1.00;;;;;;5046316;28;20274;-87
2023/08/30 09:07:14;;;;;;;1.52;1.42;;;19.20;1.00;;;;;;5047289;28;20210;-86
2023/08/30 09:09:40;;;;;;;3.53;1.70;;;19.30;1.00;;;;;;5046123;28;20198;-87
2023/08/30 09:12:06;;;;;;;4.00;1.35;;;19.20;1.00;;;;;;5046109;28;20337;-87
2023/08/30 09:14:32;;;;;;;1.40;1.30;;;19.30;1.00;;;;;;5046392;28;20555;-87
2023/08/30 09:17:00;;;;;;;1.85;1.25;;;19.40;1.00;;;;;;5046681;28;20186;-87
2023/08/30 09:19:26;;;;;;;1.55;1.45;;;19.50;1.00;;;;;;5046351;28;20206;-87
2023/08/30 09:21:59;;;;;;;3.08;1.13;;;19.60;1.00;;;;;;5047273;28;20705;-87
2023/08/30 09:24:25;;;;;;;1.25;1.00;;;19.60;1.00;;;;;;5046005;28;20248;-87
2023/08/30 09:26:54;;;;;;;1.30;1.20;;;19.50;1.00;;;;;;5047750;28;20217;-88
2023/08/30 09:29:23;;;;;;;2.42;1.10;;;19.90;1.00;;;;;;5045708;28;20244;-86
2023/08/30 09:31:55;;;;;;;1.98;1.48;;;19.90;1.00;;;;;;5046016;28;20182;-87
2023/08/30 09:34:27;;;;;;;1.30;1.20;;;19.80;1.00;;;;;;5045740;28;20182;-87
2023/08/30 09:36:53;;;;;;;0.80;0.80;;;20.10;1.00;;;;;;5045072;28;20194;-87
2023/08/30 09:39:19;;;;;;;2.67;1.20;;;20.20;1.00;;;;;;5044912;28;20765;-87
2023/08/30 09:41:49;;;;;;;1.50;1.20;;;20.30;1.00;;;;;;5045373;28;20209;-87
2023/08/30 09:44:16;;;;;;;2.50;1.10;;;20.60;1.00;;;;;;5045485;28;20659;-88
2023/08/30 09:46:44;;;;;;;1.85;1.00;;;20.80;1.00;;;;;;5045424;28;20240;-87
2023/08/30 09:49:10;;;;;;;1.73;1.20;;;21.10;1.00;;;;;;5045514;28;20289;-89
2023/08/30 09:51:42;;;;;;;1.10;1.00;;;21.10;1.00;;;;;;5051385;28;20183;-88
2023/08/30 09:54:14;;;;;;;1.27;1.10;;;21.00;1.00;;;;;;5052778;28;20661;-88
2023/08/30 09:56:41;;;;;;;1.83;1.00;;;20.90;1.00;;;;;;5056955;28;20182;-88
2023/08/30 09:59:07;;;;;;;1.77;1.10;;;21.00;1.00;;;;;;5059984;28;20229;-89
2023/08/30 10:01:34;;;;;;;1.23;1.13;;;21.20;1.00;;;;;;5059399;28;20182;-87
2023/08/30 10:04:03;;;;;;;1.23;1.10;;;21.30;1.00;;;;;;5055103;28;20184;-87
2023/08/30 10:06:29;;;;;;;1.13;1.00;;;21.50;1.00;;;;;;5053036;28;20220;-89
2023/08/30 10:08:58;;;;;;;1.95;0.90;;;21.90;1.00;;;;;;5055771;28;20195;-89
2023/08/30 10:11:24;;;;;;;1.83;1.20;;;22.10;1.00;;;;;;5054036;28;20210;-90
2023/08/30 10:13:52;;;;;;;1.65;1.55;;;22.20;1.00;;;;;;5053737;28;20197;-89
2023/08/30 10:16:24;;;;;;;2.20;1.90;;;22.00;1.00;;;;;;5055036;28;20174;-89
2023/08/30 10:18:53;;;;;;;4.45;3.53;;;21.80;1.00;;;;;;5053289;28;20293;-88
2023/08/30 10:21:19;;;;;;;3.38;3.10;;;21.70;1.00;;;;;;5053919;28;20185;-88
2023/08/30 10:23:48;;;;;;;2.80;2.60;;;21.90;1.00;;;;;;5052687;28;20174;-88
2023/08/30 10:26:15;;;;;;;6.43;5.75;;;21.80;1.00;;;;;;5054612;28;20537;-89
2023/08/30 10:28:42;;;;;;;6.60;5.10;;;21.90;1.00;;;;;;5054400;28;20190;-89
2023/08/30 10:31:08;;;;;;;3.47;3.17;;;21.60;1.00;;;;;;5054087;28;20198;-90
2023/08/30 10:33:54;;;;;;;3.65;2.92;;;21.70;1.00;;;;;;5052244;28;20268;-90
2023/08/30 10:36:23;;;;;;;3.58;2.50;;;21.60;1.00;;;;;;5051224;28;20205;-89
2023/08/30 10:38:55;;;;;;;2.33;2.13;;;21.80;1.00;;;;;;5056084;28;20190;-90
2023/08/30 10:41:24;;;;;;;2.00;1.80;;;22.10;1.00;;;;;;5055772;28;20178;-89
2023/08/30 10:43:55;;;;;;;3.03;1.98;;;22.20;1.00;;;;;;5050976;28;20181;-90
2023/08/30 10:46:31;;;;;;;2.45;1.80;;;22.10;1.00;;;;;;5051176;28;20171;-90
2023/08/30 10:49:09;;;;;;;2.22;1.45;;;22.00;1.00;;;;;;5051693;28;20208;-89
2023/08/30 10:51:37;;;;;;;1.60;1.50;;;22.20;1.00;;;;;;5051818;28;20605;-89
2023/08/30 10:54:11;;;;;;;1.92;1.70;;;22.30;1.00;;;;;;5051721;28;20174;-90
2023/08/30 10:56:51;;;;;;;1.95;1.75;;;22.20;1.00;;;;;;5051727;28;20182;-88
2023/08/30 10:59:22;;;;;;;1.75;1.60;;;22.30;1.00;;;;;;5051751;28;20717;-89
2023/08/30 11:01:50;;;;;;;2.13;1.60;;;22.30;1.00;;;;;;5052204;28;20208;-90
2023/08/30 11:04:17;;;;;;;1.65;1.40;;;22.20;1.00;;;;;;5052321;28;20186;-89
2023/08/30 11:06:48;;;;;;;1.70;1.30;;;22.20;1.00;;;;;;5051671;28;20240;-89
2023/08/30 11:09:18;;;;;;;1.70;1.60;;;22.20;1.00;;;;;;5052345;28;20742;-88
2023/08/30 11:11:45;;;;;;;1.50;1.40;;;22.10;1.00;;;;;;5052358;28;20178;-89
2023/08/30 11:14:10;;;;;;;2.55;1.40;;;21.90;1.00;;;;;;5051601;28;20555;-89
2023/08/30 11:16:36;;;;;;;1.75;1.25;;;21.90;1.00;;;;;;5051594;28;20177;-89
2023/08/30 11:19:03;;;;;;;1.58;1.48;;;21.80;1.00;;;;;;5051160;28;20198;-89
2023/08/30 11:21:30;;;;;;;1.25;1.13;;;22.00;1.00;;;;;;5051493;28;20182;-89
2023/08/30 11:23:56;;;;;;;1.52;1.20;;;22.20;1.00;;;;;;5031935;28;20208;-89
2023/08/30 11:26:22;;;;;;;2.00;1.55;;;22.10;1.00;;;;;;5034888;28;20261;-89
2023/08/30 11:28:51;;;;;;;1.85;1.20;;;21.90;1.00;;;;;;5052222;28;20206;-89
2023/08/30 11:31:22;;;;;;;1.42;1.33;;;22.00;1.00;;;;;;5050678;28;20213;-89
2023/08/30 11:33:58;;;;;;;1.40;1.30;;;22.20;1.00;;;;;;5050550;28;20259;-89
2023/08/30 11:36:27;;;;;;;1.42;1.20;;;22.20;1.00;;;;;;5053498;28;20185;-89
2023/08/30 11:38:53;;;;;;;1.35;1.25;;;22.10;1.00;;;;;;5050954;28;20208;-90
2023/08/30 11:41:20;;;;;;;1.10;1.00;;;21.90;1.00;;;;;;5052835;28;20636;-90
2023/08/30 11:43:50;;;;;;;2.67;1.42;;;22.10;1.00;;;;;;5051386;28;20186;-88
2023/08/30 11:46:17;;;;;;;1.55;1.45;;;22.30;1.00;;;;;;5051216;28;20214;-88
2023/08/30 11:48:43;;;;;;;1.73;1.63;;;21.90;1.00;;;;;;5051072;28;20576;-88
2023/08/30 11:51:10;;;;;;;2.28;1.50;;;22.00;1.00;;;;;;5051156;28;20221;-88
2023/08/30 11:53:36;;;;;;;1.35;1.23;;;22.00;1.00;;;;;;5051122;28;20215;-88
2023/08/30 11:56:03;;;;;;;1.30;1.20;;;22.10;1.00;;;;;;5052682;28;20648;-89
2023/08/30 11:58:32;;;;;;;1.98;1.23;;;22.20;1.00;;;;;;5050681;28;20217;-88
2023/08/30 12:00:58;;;;;;;2.05;1.85;;;22.20;1.00;;;;;;5050247;28;20331;-89
2023/08/30 12:03:27;;;;;;;1.67;1.58;;;22.30;1.00;;;;;;5050369;28;20264;-88
2023/08/30 12:05:52;;;;;;;2.15;1.92;;;22.30;1.00;;;;;;5049288;28;20182;-88
2023/08/30 12:08:29;;;;;;;3.25;1.95;;;22.30;1.00;;;;;;5051330;28;20221;-88
2023/08/30 12:10:55;;;;;;;11.50;3.22;;;22.30;1.00;;;;;;5051818;28;20228;-89
2023/08/30 12:13:25;;;;;;;11.02;2.75;;;22.30;1.00;;;;;;5050386;28;20202;-89
2023/08/30 12:15:52;;;;;;;5.70;3.45;;;22.30;1.00;;;;;;5047998;28;21118;-89
2023/08/30 12:18:23;;;;;;;3.38;2.00;;;22.30;1.00;;;;;;5047305;28;20220;-89
2023/08/30 12:20:55;;;;;;;4.25;2.90;;;22.50;1.00;;;;;;5064054;28;20198;-89
2023/08/30 12:23:26;;;;;;;2.80;2.60;;;22.40;1.00;;;;;;5045754;28;20182;-89
2023/08/30 12:26:09;;;;;;;3.58;2.80;;;22.50;1.00;;;;;;5044398;28;20190;-90
2023/08/30 12:28:38;;;;;;;2.40;2.20;;;22.70;1.00;;;;;;5045049;28;20202;-89
2023/08/30 12:31:05;;;;;;;7.97;2.70;;;22.70;1.00;;;;;;5060335;28;20617;-89
2023/08/30 12:33:31;;;;;;;8.30;2.70;;;22.60;1.00;;;;;;5043383;28;20201;-87
2023/08/30 12:35:57;;;;;;;2.60;2.40;;;22.70;1.00;;;;;;5043316;28;20197;-88
2023/08/30 12:38:24;;;;;;;3.05;2.70;;;22.70;1.00;;;;;;5038780;28;20202;-88
2023/08/30 12:40:52;;;;;;;2.60;2.40;;;22.60;1.00;;;;;;5043423;28;20437;-88
2023/08/30 12:43:19;;;;;;;3.25;2.80;;;22.50;1.00;;;;;;5041925;28;20190;-88
2023/08/30 12:45:46;;;;;;;3.47;3.17;;;22.30;1.00;;;;;;5042332;28;20765;-87
2023/08/30 12:48:16;;;;;;;6.22;3.80;;;22.60;1.00;;;;;;5044427;28;20266;-88
2023/08/30 12:50:44;;;;;;;7.65;3.92;;;22.40;1.00;;;;;;5041542;28;20324;-88
2023/08/30 12:53:10;;;;;;;28.50;12.05;;;22.20;1.00;;;;;;5042549;28;20187;-89
2023/08/30 12:55:36;;;;;;;6.10;3.65;;;22.30;1.00;;;;;;5042455;28;20612;-88
2023/08/30 12:58:04;;;;;;;12.25;5.65;;;22.30;1.00;;;;;;5041805;28;20182;-88
2023/08/30 13:00:30;;;;;;;5.30;3.90;;;22.30;1.00;;;;;;5042737;28;20566;-89
2023/08/30 13:02:56;;;;;;;11.27;4.60;;;22.10;1.00;;;;;;5042238;28;20216;-88
2023/08/30 13:05:21;;;;;;;3.38;2.85;;;22.00;1.00;;;;;;5042542;28;20362;-87
2023/08/30 13:07:48;;;;;;;4.15;3.47;;;21.80;1.00;;;;;;5043757;28;20572;-88
2023/08/30 13:10:13;;;;;;;3.50;3.20;;;21.90;1.00;;;;;;5042084;28;20202;-88
2023/08/30 13:12:39;;;;;;;2.97;2.78;;;22.00;1.00;;;;;;5042567;28;20694;-87
2023/08/30 13:15:06;;;;;;;3.55;2.95;;;22.00;1.00;;;;;;5045327;28;20186;-88
2023/08/30 13:17:31;;;;;;;3.08;2.70;;;22.10;1.00;;;;;;5044330;28;20178;-88
2023/08/30 13:19:58;;;;;;;3.45;3.15;;;22.20;1.00;;;;;;5043685;28;20213;-87
2023/08/30 13:22:27;;;;;;;3.30;3.08;;;22.30;1.00;;;;;;5044061;28;20228;-86
2023/08/30 13:24:53;;;;;;;3.00;2.78;;;22.40;1.00;;;;;;5043452;28;20198;-87
2023/08/30 13:27:19;;;;;;;3.67;3.00;;;22.40;1.00;;;;;;5044745;28;20458;-87
2023/08/30 13:29:44;;;;;;;3.50;3.20;;;22.50;1.00;;;;;;5045691;28;20201;-88
2023/08/30 13:32:11;;;;;;;3.78;2.90;;;22.40;1.00;;;;;;5045812;28;20179;-87
2023/08/30 13:34:37;;;;;;;2.95;2.67;;;22.40;1.00;;;;;;5047495;28;20193;-87
2023/08/30 13:37:03;;;;;;;2.92;2.72;;;22.30;1.00;;;;;;5046054;28;20186;-87
2023/08/30 13:39:28;;;;;;;3.30;2.90;;;22.30;1.00;;;;;;5044688;28;20874;-89
2023/08/30 13:41:54;;;;;;;3.35;3.05;;;22.30;1.00;;;;;;5044709;28;20269;-87
2023/08/30 13:44:20;;;;;;;3.83;2.83;;;22.30;1.00;;;;;;5045731;28;20186;-89
2023/08/30 13:46:48;;;;;;;2.90;2.70;;;22.00;1.00;;;;;;5044303;28;20321;-88